Time;durP1;ratioP1;P1;durP2;ratioP2;P2;SDS_P1;SDS_P2;PMS_P1;PMS_P2;Temp;Humidity;BMP_temperature;BMP_pressure;BME280_temperature;BME280_humidity;BME280_pressure;Samples;Min_cycle;Max_cycle;Signal;HPM_P1;HPM_P2
2023/07/18 00:01:08;;;;;;;2.72;1.92;;;17.40;1.00;;;;;;10400612;28;20197;-81
2023/07/18 00:06:29;;;;;;;2.53;1.90;;;17.40;99.90;;;;;;10399822;28;20499;-79
2023/07/18 00:11:50;;;;;;;2.88;1.90;;;17.30;1.00;;;;;;10401699;28;20203;-80
2023/07/18 00:17:12;;;;;;;3.13;1.90;;;17.20;99.90;;;;;;10400263;28;20193;-79
2023/07/18 00:22:33;;;;;;;3.00;1.80;;;17.00;37.90;;;;;;10373176;28;20274;-80
2023/07/18 00:27:54;;;;;;;4.55;2.08;;;16.90;1.00;;;;;;10400340;28;20219;-79
2023/07/18 00:33:15;;;;;;;3.65;2.38;;;16.80;99.90;;;;;;10399412;28;20193;-79
2023/07/18 00:38:37;;;;;;;3.20;2.05;;;16.70;99.90;;;;;;10400291;28;20192;-80
2023/07/18 00:43:58;;;;;;;3.78;2.35;;;16.50;99.90;;;;;;10383583;28;20222;-80
2023/07/18 00:49:19;;;;;;;4.15;2.20;;;16.50;1.00;;;;;;10393550;28;20200;-80
2023/07/18 00:54:43;;;;;;;3.33;2.40;;;16.50;99.90;;;;;;10379707;28;20212;-85
2023/07/18 01:00:11;;;;;;;4.15;2.88;;;16.50;1.00;;;;;;10345138;28;20199;-81
2023/07/18 01:05:33;;;;;;;5.47;2.75;;;16.50;1.00;;;;;;10362246;28;20248;-82
2023/07/18 01:10:55;;;;;;;7.47;2.25;;;16.40;1.00;;;;;;10398122;28;20210;-78
2023/07/18 01:16:16;;;;;;;7.25;2.58;;;16.40;1.00;;;;;;10398500;28;20213;-79
2023/07/18 01:21:38;;;;;;;5.18;2.58;;;16.40;99.90;;;;;;10397363;28;20203;-85
2023/07/18 01:26:59;;;;;;;3.08;2.13;;;16.40;1.00;;;;;;10397954;28;20229;-79
2023/07/18 01:32:20;;;;;;;3.70;2.40;;;16.40;1.00;;;;;;10383225;28;20196;-80
2023/07/18 01:37:44;;;;;;;4.55;2.20;;;16.40;99.90;;;;;;10378863;28;20203;-79
2023/07/18 01:43:06;;;;;;;4.13;2.60;;;16.40;1.00;;;;;;10388712;28;20270;-80
2023/07/18 01:48:29;;;;;;;7.65;2.40;;;16.40;99.90;;;;;;10383683;28;20227;-83
2023/07/18 01:53:50;;;;;;;3.33;1.83;;;16.40;99.90;;;;;;10371045;28;20202;-80
2023/07/18 01:59:14;;;;;;;3.45;1.88;;;16.50;1.00;;;;;;10376233;28;20227;-80
2023/07/18 02:04:36;;;;;;;2.53;1.90;;;16.50;1.00;;;;;;10382578;28;20281;-80
2023/07/18 02:10:00;;;;;;;3.72;2.10;;;16.50;1.00;;;;;;10381135;28;20198;-79
2023/07/18 02:15:22;;;;;;;6.15;2.70;;;16.60;1.00;;;;;;10382151;28;20203;-80
2023/07/18 02:20:43;;;;;;;2.25;2.00;;;16.60;30.20;;;;;;10395799;28;20219;-79
2023/07/18 02:26:04;;;;;;;3.03;2.00;;;16.70;39.50;;;;;;10395353;28;20594;-79
2023/07/18 02:31:25;;;;;;;5.75;2.38;;;16.70;1.00;;;;;;10395503;28;20216;-79
2023/07/18 02:36:47;;;;;;;3.58;2.30;;;16.70;99.90;;;;;;10379763;28;20259;-79
2023/07/18 02:42:08;;;;;;;4.15;2.40;;;16.70;93.10;;;;;;10385976;28;20276;-78
2023/07/18 02:47:30;;;;;;;6.75;2.42;;;16.60;99.90;;;;;;10354746;28;20232;-79
2023/07/18 02:52:51;;;;;;;3.38;2.08;;;16.50;1.00;;;;;;10383418;28;20203;-78
2023/07/18 02:58:12;;;;;;;3.92;2.28;;;16.40;1.00;;;;;;10381231;28;20199;-79
2023/07/18 03:03:34;;;;;;;7.22;2.83;;;16.20;1.00;;;;;;10392600;28;20254;-83
2023/07/18 03:08:56;;;;;;;7.97;2.35;;;16.10;1.00;;;;;;10363395;28;20222;-82
2023/07/18 03:14:18;;;;;;;5.35;2.13;;;16.10;99.90;;;;;;10366766;28;20548;-79
2023/07/18 03:19:39;;;;;;;8.40;2.35;;;16.10;1.00;;;;;;10396602;28;20206;-79
2023/07/18 03:25:07;;;;;;;4.03;2.33;;;16.00;1.00;;;;;;10388420;28;20273;-80
2023/07/18 03:30:28;;;;;;;2.92;2.40;;;15.90;99.90;;;;;;10388992;28;20382;-79
2023/07/18 03:35:51;;;;;;;4.90;2.58;;;15.80;1.00;;;;;;10401129;28;20363;-79
2023/07/18 03:41:12;;;;;;;4.78;2.55;;;15.80;1.00;;;;;;10388142;28;20375;-83
2023/07/18 03:46:34;;;;;;;4.13;2.40;;;15.80;1.00;;;;;;10401908;28;20234;-88
2023/07/18 03:51:55;;;;;;;2.80;2.20;;;15.70;1.00;;;;;;10399486;28;20428;-87
2023/07/18 03:57:16;;;;;;;3.05;1.80;;;15.70;1.00;;;;;;10401516;28;20276;-84
2023/07/18 04:02:37;;;;;;;5.03;1.70;;;15.70;99.90;;;;;;10387058;28;20561;-80
2023/07/18 04:07:59;;;;;;;3.83;1.90;;;15.60;99.90;;;;;;10399507;28;20226;-80
2023/07/18 04:13:20;;;;;;;6.75;2.53;;;15.50;1.00;;;;;;10399515;28;20199;-79
2023/07/18 04:18:41;;;;;;;4.18;1.92;;;15.60;1.00;;;;;;10400410;28;20185;-82
2023/07/18 04:24:04;;;;;;;5.20;2.03;;;15.60;1.00;;;;;;10389267;28;20291;-80
2023/07/18 04:29:26;;;;;;;3.63;2.05;;;15.60;99.90;;;;;;10400266;28;20202;-78
2023/07/18 04:34:48;;;;;;;3.50;1.67;;;15.60;29.30;;;;;;10399021;28;20228;-81
2023/07/18 04:40:10;;;;;;;5.68;2.00;;;15.80;1.00;;;;;;10384309;28;20203;-82
2023/07/18 04:45:31;;;;;;;2.78;1.67;;;15.90;99.90;;;;;;10377865;28;20223;-84
2023/07/18 04:50:58;;;;;;;2.30;1.45;;;15.80;1.00;;;;;;10359546;28;20192;-80
2023/07/18 04:56:19;;;;;;;5.15;2.00;;;15.80;1.00;;;;;;10396743;28;20219;-87
2023/07/18 05:01:41;;;;;;;4.32;2.10;;;15.90;1.00;;;;;;10385264;28;20596;-79
2023/07/18 05:07:03;;;;;;;8.52;2.03;;;15.90;1.00;;;;;;10398319;28;20230;-79
2023/07/18 05:12:25;;;;;;;3.30;1.42;;;16.00;99.90;;;;;;10394510;28;20218;-83
2023/07/18 05:17:47;;;;;;;5.60;1.80;;;16.10;1.00;;;;;;10384490;28;20203;-81
2023/07/18 05:23:08;;;;;;;6.20;2.58;;;16.10;1.00;;;;;;10370166;28;20202;-81
2023/07/18 05:28:29;;;;;;;5.47;1.77;;;16.20;99.90;;;;;;10396364;28;20237;-80
2023/07/18 05:33:51;;;;;;;6.38;1.98;;;16.30;1.00;;;;;;10397429;28;20589;-85
2023/07/18 05:39:12;;;;;;;7.00;2.10;;;16.40;1.00;;;;;;10398309;28;20200;-85
2023/07/18 05:44:34;;;;;;;5.28;1.73;;;16.50;99.90;;;;;;10368328;28;20266;-86
2023/07/18 05:49:55;;;;;;;2.45;1.73;;;16.70;1.00;;;;;;10369472;28;20218;-79
2023/07/18 05:55:17;;;;;;;5.68;1.70;;;16.90;1.00;;;;;;10373993;28;20275;-87
2023/07/18 06:00:39;;;;;;;3.63;1.63;;;17.00;99.90;;;;;;10394816;28;20206;-79
2023/07/18 06:06:00;;;;;;;4.88;1.63;;;17.10;1.00;;;;;;10396077;28;20278;-82
2023/07/18 06:11:22;;;;;;;8.35;2.22;;;17.10;1.00;;;;;;10394275;28;20280;-85
2023/07/18 06:16:45;;;;;;;6.28;2.20;;;17.40;1.00;;;;;;10381460;28;20227;-80
2023/07/18 06:22:06;;;;;;;6.07;1.50;;;17.60;1.00;;;;;;10377153;28;20223;-79
2023/07/18 06:27:28;;;;;;;5.00;2.00;;;17.70;1.00;;;;;;10395584;28;20428;-80
2023/07/18 06:32:49;;;;;;;2.67;1.65;;;18.00;99.90;;;;;;10393946;28;20223;-80
2023/07/18 06:38:13;;;;;;;9.38;1.60;;;18.40;56.60;;;;;;10395182;28;20197;-79
2023/07/18 06:43:34;;;;;;;5.10;1.75;;;18.50;1.00;;;;;;10393623;28;20199;-79
2023/07/18 06:48:55;;;;;;;6.88;1.90;;;18.70;1.00;;;;;;10369859;28;20302;-83
2023/07/18 06:54:17;;;;;;;2.83;1.45;;;18.80;1.00;;;;;;10388731;28;20251;-79
2023/07/18 06:59:38;;;;;;;4.55;1.70;;;19.20;99.90;;;;;;10365065;28;20213;-80
2023/07/18 07:05:00;;;;;;;6.32;1.70;;;19.10;31.60;;;;;;10375490;28;20252;-84
2023/07/18 07:10:23;;;;;;;4.90;1.65;;;19.70;1.00;;;;;;10389415;28;20527;-79
2023/07/18 07:15:45;;;;;;;4.70;1.67;;;20.10;1.00;;;;;;10390613;28;20197;-79
2023/07/18 07:21:06;;;;;;;6.50;1.50;;;20.50;1.00;;;;;;10385917;28;20203;-81
2023/07/18 07:26:28;;;;;;;7.88;1.65;;;21.10;1.00;;;;;;10396630;28;20284;-82
2023/07/18 07:31:49;;;;;;;2.85;1.27;;;21.40;1.00;;;;;;10356834;28;21145;-79
2023/07/18 07:37:10;;;;;;;6.18;1.98;;;21.80;1.00;;;;;;10375238;28;20400;-82
2023/07/18 07:42:32;;;;;;;6.07;1.50;;;21.70;99.90;;;;;;10375196;28;20515;-81
2023/07/18 07:47:53;;;;;;;4.72;1.63;;;22.20;99.90;;;;;;10383772;28;20236;-81
2023/07/18 07:53:15;;;;;;;7.80;2.03;;;22.70;99.90;;;;;;10388264;28;20204;-82
2023/07/18 07:58:37;;;;;;;4.70;1.40;;;22.60;99.90;;;;;;10362229;28;20194;-79
2023/07/18 08:03:58;;;;;;;5.38;1.80;;;22.70;99.90;;;;;;10376732;28;20455;-80
2023/07/18 08:09:20;;;;;;;4.82;1.52;;;23.00;99.90;;;;;;10379992;28;20232;-80
2023/07/18 08:14:41;;;;;;;4.80;1.50;;;23.00;99.90;;;;;;10381882;28;20204;-79
2023/07/18 08:20:04;;;;;;;4.00;1.48;;;22.60;99.90;;;;;;10381285;28;20223;-79
2023/07/18 08:25:27;;;;;;;3.90;1.38;;;22.50;99.90;;;;;;10354848;28;20293;-81
2023/07/18 08:30:49;;;;;;;5.40;1.83;;;22.80;99.90;;;;;;10375717;28;20232;-81
2023/07/18 08:36:10;;;;;;;2.28;1.30;;;22.80;99.90;;;;;;10381907;28;20381;-84
2023/07/18 08:41:32;;;;;;;4.93;1.85;;;22.50;99.90;;;;;;10380955;28;20432;-80
2023/07/18 08:46:54;;;;;;;2.80;1.65;;;22.60;99.90;;;;;;10376839;28;20267;-84
2023/07/18 08:52:15;;;;;;;4.03;1.48;;;23.20;99.90;;;;;;10394564;28;20214;-81
2023/07/18 08:57:39;;;;;;;5.88;1.25;;;22.80;99.90;;;;;;10395496;28;20201;-81
2023/07/18 09:03:00;;;;;;;4.65;1.90;;;22.80;99.90;;;;;;10370647;28;20245;-81
2023/07/18 09:08:22;;;;;;;4.32;1.55;;;23.30;99.90;;;;;;10339171;28;20349;-85
2023/07/18 09:13:43;;;;;;;4.15;1.77;;;22.90;99.90;;;;;;10353315;28;20289;-83
2023/07/18 09:19:04;;;;;;;3.97;1.33;;;22.40;99.90;;;;;;10387166;28;20233;-82
2023/07/18 09:24:35;;;;;;;3.67;1.65;;;22.40;99.90;;;;;;10379112;28;20508;-85
2023/07/18 09:29:56;;;;;;;4.53;1.70;;;21.70;99.90;;;;;;10365693;28;20198;-85
2023/07/18 09:35:18;;;;;;;8.73;1.63;;;22.00;99.90;;;;;;10375698;28;20197;-81
2023/07/18 09:40:41;;;;;;;4.15;1.42;;;21.70;99.90;;;;;;10378862;28;20224;-86
2023/07/18 09:46:04;;;;;;;5.07;1.65;;;21.10;1.00;;;;;;10376462;28;20295;-83
2023/07/18 09:51:30;;;;;;;4.53;1.75;;;20.20;26.50;;;;;;10353478;28;20213;-79
2023/07/18 09:56:53;;;;;;;3.35;1.52;;;19.80;1.00;;;;;;10389436;28;20243;-82
2023/07/18 10:02:15;;;;;;;3.28;1.63;;;19.80;99.90;;;;;;10389856;28;20233;-80
2023/07/18 10:07:38;;;;;;;3.45;1.30;;;19.70;99.90;;;;;;10377993;28;20223;-78
2023/07/18 10:13:01;;;;;;;3.45;1.73;;;19.60;1.00;;;;;;10377403;28;20268;-81
2023/07/18 10:18:24;;;;;;;6.60;1.63;;;19.30;8.50;;;;;;10390599;28;20373;-80
2023/07/18 10:23:45;;;;;;;4.70;1.83;;;18.90;1.00;;;;;;10363341;28;20244;-80
2023/07/18 10:29:06;;;;;;;3.58;1.70;;;18.60;1.00;;;;;;10389403;28;20240;-83
2023/07/18 10:34:28;;;;;;;7.25;2.60;;;18.60;99.90;;;;;;10362362;28;20292;-83
2023/07/18 10:39:50;;;;;;;5.28;1.95;;;19.30;99.90;;;;;;10364621;28;20205;-84
2023/07/18 10:45:11;;;;;;;4.18;1.52;;;20.50;1.00;;;;;;10389898;28;20193;-78
2023/07/18 10:50:34;;;;;;;6.90;1.95;;;21.30;11.70;;;;;;10385066;28;20263;-85
2023/07/18 10:55:57;;;;;;;6.97;1.92;;;21.50;1.00;;;;;;10355450;28;20209;-85
2023/07/18 11:01:20;;;;;;;4.05;1.60;;;21.10;1.00;;;;;;10390318;28;20198;-83
2023/07/18 11:06:53;;;;;;;4.43;1.50;;;20.70;1.00;;;;;;10374185;28;20233;-84
2023/07/18 11:12:19;;;;;;;2.00;1.35;;;20.30;99.90;;;;;;10376174;28;20239;-87
2023/07/18 11:17:42;;;;;;;4.25;1.65;;;20.20;1.00;;;;;;10376082;28;20220;-84
2023/07/18 11:23:03;;;;;;;4.18;1.63;;;21.00;1.00;;;;;;10369690;28;20205;-84
2023/07/18 11:28:34;;;;;;;5.63;1.88;;;22.20;1.00;;;;;;10366295;28;20226;-82
2023/07/18 11:33:57;;;;;;;2.55;1.52;;;22.90;1.00;;;;;;10383770;28;20209;-82
2023/07/18 11:39:21;;;;;;;2.78;1.85;;;;;;;;;;10366813;28;20209;-82
2023/07/18 11:44:44;;;;;;;3.28;1.48;;;23.50;1.00;;;;;;10356499;28;20209;-83
2023/07/18 11:50:10;;;;;;;4.05;1.80;;;22.70;1.00;;;;;;10372745;28;20313;-83
2023/07/18 11:55:31;;;;;;;5.90;1.88;;;22.50;1.00;;;;;;10383036;28;20205;-80
2023/07/18 12:00:58;;;;;;;3.75;1.67;;;22.70;1.00;;;;;;10395996;28;20228;-82
2023/07/18 12:06:21;;;;;;;5.05;1.83;;;22.40;1.00;;;;;;10355242;28;20264;-83
2023/07/18 12:11:42;;;;;;;5.13;1.80;;;22.40;1.00;;;;;;10367381;28;20193;-83
2023/07/18 12:17:04;;;;;;;6.47;2.03;;;22.20;1.00;;;;;;10387453;28;20199;-83
2023/07/18 12:22:25;;;;;;;3.72;1.48;;;22.50;99.90;;;;;;10392621;28;20271;-84
2023/07/18 12:27:46;;;;;;;5.30;1.38;;;23.10;99.90;;;;;;10368320;28;20224;-81
2023/07/18 12:33:08;;;;;;;2.25;1.30;;;23.00;99.90;;;;;;10401438;28;20408;-88
2023/07/18 12:38:30;;;;;;;3.28;1.67;;;22.70;99.90;;;;;;10384388;28;20208;-83
2023/07/18 12:43:51;;;;;;;3.30;1.60;;;22.30;99.90;;;;;;10389789;28;20240;-85
2023/07/18 12:49:16;;;;;;;9.00;2.60;;;;;;;;;;10380190;28;20233;-82
2023/07/18 12:54:59;;;;;;;4.82;2.15;;;;;;;;;;10392130;28;20204;-83
2023/07/18 13:00:20;;;;;;;9.75;2.50;;;21.30;1.00;;;;;;10380466;28;20272;-84
2023/07/18 13:05:43;;;;;;;6.82;1.83;;;21.10;1.00;;;;;;10393227;28;20566;-83
2023/07/18 13:11:04;;;;;;;4.72;1.45;;;21.20;1.00;;;;;;10392129;28;20807;-83
2023/07/18 13:16:26;;;;;;;4.88;1.60;;;21.40;1.00;;;;;;10380044;28;20279;-83
2023/07/18 13:21:47;;;;;;;4.80;1.98;;;21.90;1.00;;;;;;10377867;28;20255;-82
2023/07/18 13:27:09;;;;;;;1.50;1.10;;;22.10;1.00;;;;;;10340598;28;20246;-84
2023/07/18 13:32:30;;;;;;;3.65;1.35;;;22.30;1.00;;;;;;10314949;28;20195;-83
2023/07/18 13:37:51;;;;;;;3.03;1.30;;;22.20;1.00;;;;;;10336691;28;20205;-82
2023/07/18 13:43:13;;;;;;;2.67;1.10;;;22.20;1.00;;;;;;10352014;28;20208;-84
2023/07/18 13:48:34;;;;;;;2.40;1.30;;;22.30;1.00;;;;;;10351180;28;20420;-85
2023/07/18 13:53:56;;;;;;;2.65;1.33;;;22.20;1.00;;;;;;10350752;28;20205;-83
2023/07/18 13:59:17;;;;;;;4.38;1.60;;;22.20;1.00;;;;;;10337944;28;20236;-83
2023/07/18 14:04:39;;;;;;;3.58;1.20;;;22.30;1.00;;;;;;10352132;28;20394;-83
2023/07/18 14:10:01;;;;;;;4.63;1.27;;;22.50;1.00;;;;;;10350575;28;20229;-83
2023/07/18 14:15:22;;;;;;;2.90;1.20;;;23.00;99.90;;;;;;10351558;28;20213;-83
2023/07/18 14:20:44;;;;;;;3.10;1.17;;;23.20;1.00;;;;;;10337013;28;20272;-85
2023/07/18 14:26:06;;;;;;;2.58;1.10;;;23.00;1.00;;;;;;10349969;28;20255;-84
2023/07/18 14:31:27;;;;;;;3.90;1.83;;;22.90;1.00;;;;;;10349325;28;20468;-83
2023/07/18 14:36:49;;;;;;;2.83;1.40;;;22.90;99.90;;;;;;10349789;28;20214;-82
2023/07/18 14:42:10;;;;;;;2.38;0.93;;;23.10;23.40;;;;;;10348248;28;20325;-83
2023/07/18 14:47:32;;;;;;;2.22;1.10;;;23.00;1.00;;;;;;10360058;28;20231;-83
2023/07/18 14:52:53;;;;;;;2.33;1.10;;;22.80;1.00;;;;;;10354260;28;20245;-83
2023/07/18 14:58:15;;;;;;;2.97;1.42;;;22.50;1.00;;;;;;10347164;28;20297;-83
2023/07/18 15:03:37;;;;;;;2.25;1.20;;;22.40;1.00;;;;;;10349002;28;20280;-85
2023/07/18 15:08:59;;;;;;;2.00;1.27;;;22.40;1.00;;;;;;10335053;28;20256;-82
2023/07/18 15:14:21;;;;;;;2.28;1.40;;;22.20;1.00;;;;;;10352456;28;20198;-82
2023/07/18 15:19:42;;;;;;;1.98;1.05;;;22.10;99.90;;;;;;10348002;28;20202;-82
2023/07/18 15:25:08;;;;;;;3.75;1.15;;;22.10;99.90;;;;;;10342602;28;20196;-83
2023/07/18 15:30:29;;;;;;;3.78;1.33;;;22.10;99.90;;;;;;10351900;28;20288;-83
2023/07/18 15:35:51;;;;;;;1.77;1.30;;;22.20;99.90;;;;;;10346939;28;20190;-81
2023/07/18 15:41:12;;;;;;;1.65;1.13;;;22.30;99.90;;;;;;10338302;28;20248;-83
2023/07/18 15:46:38;;;;;;;3.05;1.10;;;22.20;99.90;;;;;;10338862;28;20387;-83
2023/07/18 15:51:59;;;;;;;6.60;1.25;;;22.20;99.90;;;;;;10331429;28;20378;-83
2023/07/18 15:57:21;;;;;;;1.95;1.15;;;22.10;99.90;;;;;;10331092;28;20198;-84
2023/07/18 16:02:43;;;;;;;2.78;1.35;;;21.80;99.90;;;;;;10333416;28;20261;-82
2023/07/18 16:08:04;;;;;;;5.07;1.27;;;21.90;99.90;;;;;;10313550;28;20265;-82
2023/07/18 16:13:26;;;;;;;2.85;1.20;;;22.00;99.90;;;;;;10336208;28;20198;-83
2023/07/18 16:18:56;;;;;;;1.88;1.00;;;21.90;99.90;;;;;;10347158;28;20500;-83
2023/07/18 16:24:16;;;;;;;3.00;1.38;;;21.80;99.90;;;;;;10338697;28;20202;-83
2023/07/18 16:29:39;;;;;;;3.03;1.25;;;21.70;99.90;;;;;;10316906;28;20226;-83
2023/07/18 16:35:00;;;;;;;2.70;1.15;;;21.60;99.90;;;;;;10324052;28;20240;-82
2023/07/18 16:40:22;;;;;;;4.05;1.25;;;21.60;99.90;;;;;;10345255;28;20480;-83
2023/07/18 16:45:43;;;;;;;1.25;0.88;;;21.50;99.90;;;;;;10339840;28;20224;-83
2023/07/18 16:51:04;;;;;;;2.05;0.80;;;21.50;99.90;;;;;;10344691;28;20255;-83
2023/07/18 16:56:26;;;;;;;2.28;1.30;;;21.50;99.90;;;;;;10344485;28;20208;-83
2023/07/18 17:01:48;;;;;;;3.15;1.48;;;21.50;99.90;;;;;;10356994;28;20324;-83
2023/07/18 17:07:09;;;;;;;4.85;1.35;;;21.40;99.90;;;;;;10358404;28;20413;-83
2023/07/18 17:12:30;;;;;;;2.60;1.30;;;21.30;99.90;;;;;;10357613;28;20216;-83
2023/07/18 17:17:52;;;;;;;3.67;1.08;;;21.20;99.90;;;;;;10329549;28;20288;-83
2023/07/18 17:23:13;;;;;;;2.97;1.40;;;21.00;99.90;;;;;;10357776;28;20190;-82
2023/07/18 17:28:36;;;;;;;2.15;1.13;;;20.90;99.90;;;;;;10331941;28;20546;-82
2023/07/18 17:33:58;;;;;;;1.80;1.08;;;20.90;99.90;;;;;;10343436;28;20271;-83
2023/07/18 17:39:20;;;;;;;1.15;0.88;;;20.70;99.90;;;;;;10356167;28;20204;-82
2023/07/18 17:44:41;;;;;;;3.13;0.90;;;20.70;99.90;;;;;;10355509;28;20228;-83
2023/07/18 17:50:04;;;;;;;4.40;0.80;;;20.60;99.90;;;;;;10345348;28;20260;-82
2023/07/18 17:55:25;;;;;;;2.42;1.15;;;20.60;1.00;;;;;;10353122;28;20284;-83
2023/07/18 18:00:49;;;;;;;3.60;1.15;;;;;;;;;;10337972;28;20194;-82
2023/07/18 18:06:10;;;;;;;4.10;1.02;;;;;;;;;;10324574;28;20212;-83
2023/07/18 18:11:32;;;;;;;2.70;1.20;;;;;;;;;;10340569;28;20237;-83
2023/07/18 18:16:54;;;;;;;3.55;1.10;;;;;;;;;;10341954;28;20281;-82
2023/07/18 18:22:16;;;;;;;1.20;0.90;;;;;;;;;;10355733;28;20801;-82
2023/07/18 18:27:37;;;;;;;2.78;1.30;;;;;;;;;;10377166;28;20221;-82
2023/07/18 18:32:59;;;;;;;1.65;1.30;;;;;;;;;;10366793;28;20201;-82
2023/07/18 18:38:21;;;;;;;2.60;1.60;;;;;;;;;;10364891;28;20289;-83
2023/07/18 18:43:47;;;;;;;4.40;1.60;;;;;;;;;;10365470;28;20268;-82
2023/07/18 18:49:08;;;;;;;10.10;2.10;;;19.90;99.90;;;;;;10352484;28;20217;-83
2023/07/18 18:54:33;;;;;;;3.42;1.48;;;19.80;99.90;;;;;;10335373;28;20212;-82
2023/07/18 18:59:54;;;;;;;1.55;1.00;;;19.60;99.90;;;;;;10365749;28;20189;-82
2023/07/18 19:05:15;;;;;;;2.88;0.90;;;19.40;99.90;;;;;;10350731;28;20264;-82
2023/07/18 19:10:37;;;;;;;1.92;1.27;;;19.40;99.90;;;;;;10343192;28;20527;-82
2023/07/18 19:15:59;;;;;;;3.33;1.75;;;19.40;99.90;;;;;;10354025;28;20484;-83
2023/07/18 19:21:20;;;;;;;2.17;1.50;;;19.20;99.90;;;;;;10338813;28;20210;-82
2023/07/18 19:26:42;;;;;;;2.17;1.52;;;19.10;99.90;;;;;;10322760;28;20229;-83
2023/07/18 19:32:10;;;;;;;1.95;1.10;;;19.10;99.90;;;;;;10350648;28;20209;-82
2023/07/18 19:37:32;;;;;;;2.13;1.02;;;18.90;99.90;;;;;;10353445;28;20197;-83
2023/07/18 19:42:53;;;;;;;1.98;1.02;;;18.80;99.90;;;;;;10312929;28;20385;-83
2023/07/18 19:48:14;;;;;;;2.45;1.30;;;18.60;99.90;;;;;;10334361;28;20531;-82
2023/07/18 19:53:36;;;;;;;1.52;1.27;;;18.40;99.90;;;;;;10298912;28;20225;-82
2023/07/18 19:58:58;;;;;;;1.85;1.35;;;18.40;99.90;;;;;;10320826;28;20431;-83
2023/07/18 20:04:20;;;;;;;2.22;1.45;;;18.40;99.90;;;;;;10357333;28;20253;-82
2023/07/18 20:09:41;;;;;;;2.13;1.38;;;18.30;99.90;;;;;;10360265;28;20249;-83
2023/07/18 20:15:04;;;;;;;2.53;1.40;;;18.20;99.90;;;;;;10358845;28;20236;-82
2023/07/18 20:20:25;;;;;;;1.92;1.23;;;18.10;99.90;;;;;;10358411;28;20214;-81
2023/07/18 20:25:47;;;;;;;2.85;1.50;;;17.90;99.90;;;;;;10359334;28;20212;-82
2023/07/18 20:31:08;;;;;;;3.72;1.70;;;17.70;1.00;;;;;;10347638;28;20225;-81
2023/07/18 20:36:30;;;;;;;2.83;2.17;;;17.60;1.00;;;;;;10345227;28;20220;-82
2023/07/18 20:41:51;;;;;;;6.13;2.92;;;17.40;1.00;;;;;;10359170;28;20422;-82
2023/07/18 20:47:13;;;;;;;5.78;3.63;;;17.40;1.00;;;;;;10338028;28;20304;-81
2023/07/18 20:52:34;;;;;;;8.55;4.57;;;17.30;1.00;;;;;;10340140;28;20508;-82
2023/07/18 20:57:55;;;;;;;7.80;4.63;;;17.30;1.00;;;;;;10370000;28;20362;-82
2023/07/18 21:03:17;;;;;;;9.73;4.53;;;17.10;1.00;;;;;;10337732;28;20234;-82
2023/07/18 21:08:38;;;;;;;9.05;4.13;;;17.00;1.00;;;;;;10358027;28;20225;-81
2023/07/18 21:13:59;;;;;;;8.13;4.72;;;16.90;1.00;;;;;;10357603;28;20441;-82
2023/07/18 21:19:20;;;;;;;10.45;5.45;;;16.90;1.00;;;;;;10308894;28;20202;-82
2023/07/18 21:24:42;;;;;;;7.82;4.90;;;16.70;1.00;;;;;;10356313;28;20197;-82
2023/07/18 21:30:07;;;;;;;9.45;5.38;;;16.70;99.90;;;;;;10330141;28;20245;-82
2023/07/18 21:35:28;;;;;;;8.25;4.47;;;16.60;1.00;;;;;;10356464;28;20370;-83
2023/07/18 21:40:50;;;;;;;15.50;5.15;;;16.50;79.90;;;;;;10356699;28;20255;-82
2023/07/18 21:46:11;;;;;;;10.38;5.55;;;16.30;99.90;;;;;;10359133;28;20426;-82
2023/07/18 21:51:32;;;;;;;9.75;4.97;;;16.30;99.90;;;;;;10355000;28;20203;-82
2023/07/18 21:56:54;;;;;;;7.75;5.00;;;16.20;99.90;;;;;;10357195;28;20196;-82
2023/07/18 22:02:19;;;;;;;8.60;4.63;;;16.10;99.90;;;;;;10340927;28;20236;-82
2023/07/18 22:07:41;;;;;;;10.23;5.35;;;16.00;1.00;;;;;;10342450;28;20239;-82
2023/07/18 22:13:02;;;;;;;7.15;4.38;;;15.90;99.90;;;;;;10354497;28;20236;-81
2023/07/18 22:18:23;;;;;;;7.30;3.63;;;15.80;1.00;;;;;;10341662;28;20219;-83
2023/07/18 22:23:46;;;;;;;6.68;3.88;;;15.90;1.00;;;;;;10347016;28;20424;-81
2023/07/18 22:29:08;;;;;;;7.80;3.58;;;;;;;;;;10337519;28;20240;-83
2023/07/18 22:34:31;;;;;;;7.13;4.20;;;;;;;;;;10340369;28;20215;-81
2023/07/18 22:39:54;;;;;;;8.88;4.45;;;;;;;;;;10354790;28;20199;-81
2023/07/18 22:45:17;;;;;;;4.80;3.20;;;;;;;;;;10335733;28;20618;-82
2023/07/18 22:50:38;;;;;;;4.70;3.05;;;15.70;1.00;;;;;;10340932;28;20298;-83
2023/07/18 22:55:59;;;;;;;5.65;2.88;;;15.80;1.00;;;;;;10339593;28;20506;-81
2023/07/18 23:01:21;;;;;;;5.63;3.55;;;15.70;1.00;;;;;;10353901;28;20210;-81
2023/07/18 23:06:44;;;;;;;4.43;3.17;;;15.70;1.00;;;;;;10339772;28;20212;-82
2023/07/18 23:12:07;;;;;;;5.72;3.45;;;15.60;79.10;;;;;;10352894;28;20238;-82
2023/07/18 23:17:29;;;;;;;6.63;4.20;;;;;;;;;;10340121;28;20553;-82
2023/07/18 23:22:50;;;;;;;6.80;3.45;;;15.30;99.90;;;;;;10338908;28;20280;-82
2023/07/18 23:28:14;;;;;;;5.97;4.00;;;15.30;99.90;;;;;;10311981;28;20278;-81
2023/07/18 23:33:36;;;;;;;4.50;3.40;;;15.20;1.00;;;;;;10341000;28;20220;-82
2023/07/18 23:38:57;;;;;;;12.98;6.05;;;15.30;99.90;;;;;;10359988;28;20462;-82
2023/07/18 23:44:19;;;;;;;16.48;7.65;;;15.20;1.00;;;;;;10356576;28;20208;-82
2023/07/18 23:49:40;;;;;;;13.55;7.57;;;15.10;1.00;;;;;;10361124;28;20301;-82
2023/07/18 23:55:02;;;;;;;9.23;5.15;;;15.10;3.50;;;;;;10346448;28;20207;-82
